createdAt,value
2023-02-26T00:00:15.163Z,21.95
2023-02-26T00:02:49.156Z,22.10
2023-02-26T00:05:22.324Z,21.45
2023-02-26T00:10:28.361Z,21.65
2023-02-26T00:13:01.522Z,24.35
2023-02-26T00:15:34.888Z,21.45
2023-02-26T00:18:11.035Z,22.25
2023-02-26T00:20:45.148Z,22.82
2023-02-26T00:23:18.874Z,22.17
2023-02-26T00:25:52.276Z,21.50
2023-02-26T00:28:26.156Z,24.18
2023-02-26T00:30:59.406Z,21.65
2023-02-26T00:33:33.055Z,23.52
2023-02-26T00:36:25.827Z,20.97
2023-02-26T00:39:22.083Z,23.20
2023-02-26T00:41:56.068Z,23.35
2023-02-26T00:44:29.336Z,23.52
2023-02-26T00:47:27.432Z,23.27
2023-02-26T00:50:27.204Z,22.70
2023-02-26T00:53:29.196Z,21.42
2023-02-26T00:56:01.996Z,21.20
2023-02-26T00:58:35.265Z,23.18
2023-02-26T01:01:08.321Z,20.57
2023-02-26T01:03:42.160Z,20.95
2023-02-26T01:06:18.502Z,22.02
2023-02-26T01:09:34.862Z,21.07
2023-02-26T01:12:13.234Z,21.85
2023-02-26T01:14:48.731Z,20.10
2023-02-26T01:17:34.372Z,21.05
2023-02-26T01:20:19.543Z,20.27
2023-02-26T01:22:56.946Z,19.87
2023-02-26T01:25:58.592Z,19.40
2023-02-26T01:28:33.116Z,19.12
2023-02-26T01:31:08.113Z,19.55
2023-02-26T01:33:47.319Z,21.55
2023-02-26T01:36:26.668Z,19.42
2023-02-26T01:39:23.002Z,19.98
2023-02-26T01:42:09.140Z,18.57
2023-02-26T01:44:58.198Z,19.48
2023-02-26T01:47:44.240Z,20.17
2023-02-26T01:50:25.470Z,20.02
2023-02-26T01:53:20.967Z,18.50
2023-02-26T01:56:03.765Z,18.67
2023-02-26T01:58:38.995Z,19.77
2023-02-26T02:01:13.085Z,19.30
2023-02-26T02:03:46.596Z,18.07
2023-02-26T02:06:23.999Z,18.35
2023-02-26T02:08:57.094Z,16.60
2023-02-26T02:11:30.550Z,19.15
2023-02-26T02:14:20.117Z,17.98
2023-02-26T02:17:17.458Z,17.27
2023-02-26T02:20:10.404Z,17.48
2023-02-26T02:23:17.090Z,17.45
2023-02-26T02:26:39.844Z,17.77
2023-02-26T02:29:35.955Z,19.62
2023-02-26T02:32:39.491Z,18.07
2023-02-26T02:35:25.481Z,18.67
2023-02-26T02:38:21.223Z,17.95
2023-02-26T02:40:59.317Z,20.02
2023-02-26T02:43:35.166Z,18.32
2023-02-26T02:46:12.558Z,19.20
2023-02-26T02:49:11.639Z,17.85
2023-02-26T02:51:55.041Z,19.32
2023-02-26T02:54:35.482Z,19.17
2023-02-26T02:57:16.274Z,18.67
2023-02-26T02:59:55.064Z,17.02
2023-02-26T03:02:42.067Z,19.07
2023-02-26T03:05:15.584Z,17.62
2023-02-26T03:07:53.189Z,17.82
2023-02-26T03:10:26.020Z,17.17
2023-02-26T03:12:59.389Z,17.40
2023-02-26T03:15:52.613Z,17.90
2023-02-26T03:18:48.588Z,16.80
2023-02-26T03:21:27.522Z,16.87
2023-02-26T03:24:19.890Z,18.70
2023-02-26T03:27:06.315Z,16.57
2023-02-26T03:29:49.181Z,19.02
2023-02-26T03:32:32.514Z,17.98
2023-02-26T03:35:12.708Z,17.45
2023-02-26T03:37:50.312Z,17.50
2023-02-26T03:40:43.172Z,18.37
2023-02-26T03:43:27.490Z,16.62
2023-02-26T03:46:06.272Z,16.95
2023-02-26T03:48:39.351Z,16.60
2023-02-26T03:54:00.126Z,15.45
2023-02-26T03:56:46.455Z,18.20
2023-02-26T03:59:31.479Z,17.02
2023-02-26T04:02:34.624Z,17.52
2023-02-26T04:05:16.423Z,18.30
2023-02-26T04:07:50.222Z,16.57
2023-02-26T04:10:30.731Z,17.02
2023-02-26T04:13:04.731Z,17.82
2023-02-26T04:18:09.879Z,17.12
2023-02-26T04:20:44.451Z,17.00
2023-02-26T04:23:17.189Z,17.10
2023-02-26T04:25:51.280Z,17.00
2023-02-26T04:28:24.294Z,16.52
2023-02-26T04:30:58.095Z,17.65
2023-02-26T04:33:31.947Z,18.98
2023-02-26T04:36:05.519Z,17.77
2023-02-26T04:38:39.985Z,19.12
2023-02-26T04:41:12.815Z,16.85
2023-02-26T04:43:46.742Z,17.37
2023-02-26T04:46:21.606Z,17.95
2023-02-26T04:48:54.598Z,17.10
2023-02-26T04:51:28.034Z,17.40
2023-02-26T04:54:01.101Z,17.73
2023-02-26T04:56:34.293Z,16.67
2023-02-26T04:59:07.433Z,18.23
2023-02-26T05:01:40.222Z,19.10
2023-02-26T05:04:13.464Z,18.90
2023-02-26T05:06:47.235Z,18.50
2023-02-26T05:09:21.544Z,18.10
2023-02-26T05:11:55.361Z,17.60
2023-02-26T05:14:28.552Z,16.97
2023-02-26T05:17:03.521Z,19.20
2023-02-26T05:19:36.914Z,19.57
2023-02-26T05:22:10.112Z,19.35
2023-02-26T05:24:44.104Z,21.17
2023-02-26T05:27:17.402Z,18.02
2023-02-26T05:29:51.447Z,19.48
2023-02-26T05:32:24.432Z,19.15
2023-02-26T05:34:57.314Z,18.25
2023-02-26T05:37:30.345Z,17.70
2023-02-26T05:40:03.976Z,17.75
2023-02-26T05:42:37.214Z,18.37
2023-02-26T05:45:11.138Z,17.90
2023-02-26T05:47:43.915Z,18.70
2023-02-26T05:50:16.690Z,18.40
2023-02-26T05:52:50.345Z,19.10
2023-02-26T05:55:23.800Z,17.77
2023-02-26T05:57:56.886Z,19.10
2023-02-26T06:00:31.198Z,18.02
2023-02-26T06:03:04.120Z,18.77
2023-02-26T06:05:37.387Z,18.48
2023-02-26T06:08:12.405Z,17.65
2023-02-26T06:10:45.593Z,18.25
2023-02-26T06:13:18.581Z,18.47
2023-02-26T06:15:54.003Z,17.27
2023-02-26T06:18:27.133Z,17.75
2023-02-26T06:21:00.903Z,19.00
2023-02-26T06:23:34.250Z,18.10
2023-02-26T06:26:08.102Z,18.48
2023-02-26T06:31:14.740Z,18.85
2023-02-26T06:33:47.493Z,19.27
2023-02-26T06:36:20.327Z,18.62
2023-02-26T06:38:53.418Z,18.85
2023-02-26T06:41:26.762Z,17.23
2023-02-26T06:43:59.659Z,18.25
2023-02-26T06:46:33.341Z,18.10
2023-02-26T06:49:07.524Z,16.32
2023-02-26T06:51:41.039Z,17.75
2023-02-26T06:54:14.567Z,17.57
2023-02-26T06:56:48.259Z,18.42
2023-02-26T06:59:22.265Z,16.95
2023-02-26T07:01:55.290Z,17.02
2023-02-26T07:04:28.337Z,16.42
2023-02-26T07:07:01.308Z,16.70
2023-02-26T07:09:34.576Z,17.62
2023-02-26T07:12:08.269Z,16.97
2023-02-26T07:14:43.162Z,16.57
2023-02-26T07:17:17.700Z,16.37
2023-02-26T07:19:52.617Z,17.73
2023-02-26T07:22:25.639Z,17.77
2023-02-26T07:25:00.299Z,17.02
2023-02-26T07:27:34.612Z,16.57
2023-02-26T07:30:09.749Z,18.40
2023-02-26T07:32:42.746Z,18.55
2023-02-26T07:35:15.913Z,17.12
2023-02-26T07:37:52.461Z,17.35
2023-02-26T07:40:27.885Z,16.93
2023-02-26T07:43:01.313Z,16.95
2023-02-26T07:45:34.501Z,17.73
2023-02-26T07:48:07.901Z,16.55
2023-02-26T07:50:43.858Z,16.40
2023-02-26T07:53:17.242Z,16.65
2023-02-26T07:55:50.589Z,15.13
2023-02-26T07:58:23.929Z,16.62
2023-02-26T08:00:57.306Z,16.17
2023-02-26T08:03:32.456Z,16.35
2023-02-26T08:06:07.617Z,15.20
2023-02-26T08:08:40.951Z,14.78
2023-02-26T08:11:13.793Z,13.93
2023-02-26T08:13:46.984Z,13.90
2023-02-26T08:16:20.480Z,14.40
2023-02-26T08:18:53.620Z,15.47
2023-02-26T08:21:27.847Z,15.20
2023-02-26T08:24:00.648Z,13.85
2023-02-26T08:26:35.935Z,15.43
2023-02-26T08:29:09.321Z,14.45
2023-02-26T08:31:43.189Z,14.23
2023-02-26T08:34:16.891Z,14.70
2023-02-26T08:36:50.670Z,14.18
2023-02-26T08:39:24.046Z,14.60
2023-02-26T08:41:56.904Z,14.73
2023-02-26T08:44:30.399Z,13.98
2023-02-26T08:47:04.097Z,14.50
2023-02-26T08:49:37.932Z,16.25
2023-02-26T08:52:11.027Z,14.28
2023-02-26T08:54:44.365Z,14.23
2023-02-26T08:57:17.429Z,14.33
2023-02-26T08:59:51.440Z,15.05
2023-02-26T09:02:24.412Z,14.15
2023-02-26T09:04:57.225Z,15.85
2023-02-26T09:07:30.265Z,18.20
2023-02-26T09:10:03.680Z,15.97
2023-02-26T09:12:37.230Z,16.50
2023-02-26T09:15:12.496Z,16.65
2023-02-26T09:17:45.976Z,17.75
2023-02-26T09:20:19.498Z,16.07
2023-02-26T09:22:53.060Z,17.73
2023-02-26T09:25:26.058Z,16.15
2023-02-26T09:27:59.184Z,15.78
2023-02-26T09:30:32.765Z,16.03
2023-02-26T09:33:06.359Z,16.97
2023-02-26T09:35:39.093Z,15.98
2023-02-26T09:38:12.207Z,16.60
2023-02-26T09:40:55.191Z,16.50
2023-02-26T09:44:13.029Z,17.00
2023-02-26T09:47:18.439Z,16.20
2023-02-26T09:50:14.230Z,16.80
2023-02-26T09:53:12.628Z,16.35
2023-02-26T09:55:50.511Z,16.25
2023-02-26T09:58:40.564Z,16.77
2023-02-26T10:01:36.382Z,16.70
2023-02-26T10:04:34.407Z,15.70
2023-02-26T10:07:47.948Z,16.67
2023-02-26T10:10:33.279Z,17.20
2023-02-26T10:13:06.601Z,17.87
2023-02-26T10:15:43.764Z,16.62
2023-02-26T10:18:21.915Z,16.12
2023-02-26T10:21:17.237Z,17.32
2023-02-26T10:24:01.910Z,17.50
2023-02-26T10:26:40.382Z,16.40
2023-02-26T10:29:53.204Z,17.90
2023-02-26T10:32:42.438Z,17.48
2023-02-26T10:35:18.442Z,18.00
2023-02-26T10:38:00.581Z,17.45
2023-02-26T10:40:56.532Z,18.15
2023-02-26T10:43:36.926Z,21.68
2023-02-26T10:46:45.877Z,19.55
2023-02-26T10:49:42.708Z,18.02
2023-02-26T10:52:26.088Z,18.00
2023-02-26T10:55:39.162Z,18.62
2023-02-26T10:58:19.488Z,17.62
2023-02-26T11:00:56.232Z,19.60
2023-02-26T11:03:39.346Z,18.25
2023-02-26T11:06:16.360Z,19.15
2023-02-26T11:08:56.192Z,19.30
2023-02-26T11:11:54.577Z,18.48
2023-02-26T11:14:30.823Z,19.02
2023-02-26T11:17:22.380Z,18.70
2023-02-26T11:20:07.870Z,17.77
2023-02-26T11:22:41.348Z,19.60
2023-02-26T11:25:21.365Z,19.25
2023-02-26T11:27:58.962Z,18.20
2023-02-26T11:30:36.634Z,18.82
2023-02-26T11:33:19.713Z,18.12
2023-02-26T11:35:53.430Z,18.00
2023-02-26T11:38:28.615Z,18.45
2023-02-26T11:41:03.481Z,17.20
2023-02-26T11:43:46.472Z,20.30
2023-02-26T11:46:20.129Z,22.55
2023-02-26T11:48:54.012Z,21.45
2023-02-26T11:51:31.592Z,19.45
2023-02-26T11:54:04.936Z,19.07
2023-02-26T11:56:46.700Z,18.73
2023-02-26T11:59:25.190Z,16.82
2023-02-26T12:02:03.727Z,16.48
2023-02-26T12:04:36.646Z,19.15
2023-02-26T12:07:13.950Z,16.50
2023-02-26T12:09:48.415Z,17.05
2023-02-26T12:12:29.458Z,16.65
2023-02-26T12:15:46.082Z,16.75
2023-02-26T12:18:39.318Z,17.52
2023-02-26T12:21:19.590Z,17.67
2023-02-26T12:24:13.863Z,17.67
2023-02-26T12:27:01.276Z,17.52
2023-02-26T12:30:06.456Z,17.20
2023-02-26T12:32:53.518Z,17.15
2023-02-26T12:35:48.294Z,18.10
2023-02-26T12:38:34.582Z,41.92
2023-02-26T12:41:40.909Z,20.43
2023-02-26T12:44:23.896Z,19.12
2023-02-26T12:47:36.715Z,17.85
2023-02-26T12:50:20.205Z,17.62
2023-02-26T12:53:00.531Z,18.12
2023-02-26T12:55:59.803Z,20.12
2023-02-26T12:59:12.037Z,19.92
2023-02-26T13:02:03.980Z,18.95
2023-02-26T13:04:53.305Z,18.48
2023-02-26T13:07:55.503Z,19.05
2023-02-26T13:10:44.641Z,18.50
2023-02-26T13:13:40.972Z,18.77
2023-02-26T13:16:33.609Z,22.50
2023-02-26T13:19:38.050Z,23.10
2023-02-26T13:22:36.712Z,23.80
2023-02-26T13:25:28.885Z,23.75
2023-02-26T13:28:08.015Z,21.17
2023-02-26T13:30:46.641Z,19.98
2023-02-26T13:33:24.229Z,20.65
2023-02-26T13:35:58.249Z,18.48
2023-02-26T13:39:03.285Z,20.25
2023-02-26T13:41:48.028Z,17.23
2023-02-26T13:44:50.579Z,18.02
2023-02-26T13:47:58.533Z,18.30
2023-02-26T13:50:47.832Z,16.55
2023-02-26T13:53:45.666Z,22.77
2023-02-26T13:56:39.422Z,24.70
2023-02-26T13:59:38.482Z,30.35
2023-02-26T14:02:34.054Z,38.98
2023-02-26T14:05:28.176Z,37.28
2023-02-26T14:08:24.417Z,37.83
2023-02-26T14:11:21.245Z,46.60
2023-02-26T14:14:32.896Z,46.10
2023-02-26T14:17:14.019Z,31.27
2023-02-26T14:19:59.021Z,26.65
2023-02-26T14:22:43.430Z,24.90
2023-02-26T14:25:50.073Z,20.95
2023-02-26T14:28:33.424Z,21.55
2023-02-26T14:31:14.164Z,17.02
2023-02-26T14:34:18.434Z,18.12
2023-02-26T14:37:00.806Z,16.73
2023-02-26T14:39:44.998Z,18.23
2023-02-26T14:42:31.697Z,17.07
2023-02-26T14:45:11.387Z,16.82
2023-02-26T14:47:45.905Z,16.77
2023-02-26T14:50:21.555Z,16.30
2023-02-26T14:53:30.898Z,17.23
2023-02-26T14:56:55.813Z,16.02
2023-02-26T14:59:57.466Z,16.12
2023-02-26T15:03:00.709Z,16.23
2023-02-26T15:05:47.746Z,17.62
2023-02-26T15:08:28.142Z,18.62
2023-02-26T15:11:46.435Z,16.85
2023-02-26T15:14:48.413Z,17.48
2023-02-26T15:17:31.897Z,16.65
2023-02-26T15:20:24.728Z,19.52
2023-02-26T15:23:14.790Z,21.05
2023-02-26T15:25:50.495Z,19.82
2023-02-26T15:28:39.458Z,19.77
2023-02-26T15:31:14.385Z,19.17
2023-02-26T15:33:51.233Z,20.70
2023-02-26T15:36:24.907Z,20.60
2023-02-26T15:39:02.000Z,22.22
2023-02-26T15:41:35.384Z,22.17
2023-02-26T15:44:13.567Z,22.32
2023-02-26T15:46:50.152Z,22.58
2023-02-26T15:49:30.587Z,24.27
2023-02-26T15:52:05.924Z,22.50
2023-02-26T15:54:49.431Z,29.57
2023-02-26T15:57:24.538Z,20.20
2023-02-26T16:00:17.742Z,19.25
2023-02-26T16:02:53.686Z,17.80
2023-02-26T16:05:28.838Z,18.10
2023-02-26T16:08:01.679Z,18.70
2023-02-26T16:10:38.554Z,18.15
2023-02-26T16:13:18.654Z,16.60
2023-02-26T16:15:51.960Z,16.50
2023-02-26T16:18:26.978Z,17.30
2023-02-26T16:21:02.166Z,16.57
2023-02-26T16:23:47.991Z,16.42
2023-02-26T16:26:37.087Z,18.67
2023-02-26T16:29:14.764Z,18.37
2023-02-26T16:31:52.240Z,19.30
2023-02-26T16:34:44.884Z,19.23
2023-02-26T16:37:34.013Z,18.12
2023-02-26T16:40:24.600Z,18.82
2023-02-26T16:43:10.175Z,16.62
2023-02-26T16:45:51.007Z,17.12
2023-02-26T16:48:30.008Z,16.45
2023-02-26T16:51:14.868Z,15.68
2023-02-26T16:53:52.345Z,15.72
2023-02-26T16:56:29.880Z,16.60
2023-02-26T16:59:21.673Z,15.55
2023-02-26T17:02:08.823Z,14.78
2023-02-26T17:04:42.145Z,16.32
2023-02-26T17:07:28.745Z,14.85
2023-02-26T17:10:21.015Z,16.20
2023-02-26T17:12:59.725Z,15.45
2023-02-26T17:15:38.966Z,14.60
2023-02-26T17:18:13.328Z,15.38
2023-02-26T17:20:47.442Z,16.45
2023-02-26T17:23:24.580Z,15.38
2023-02-26T17:25:59.492Z,15.25
2023-02-26T17:28:42.824Z,14.93
2023-02-26T17:31:16.267Z,15.20
2023-02-26T17:33:50.530Z,14.68
2023-02-26T17:38:55.103Z,12.85
2023-02-26T17:41:30.758Z,13.35
2023-02-26T17:46:35.612Z,14.55
2023-02-26T17:49:09.105Z,14.60
2023-02-26T17:51:41.966Z,14.38
2023-02-26T17:54:14.761Z,13.85
2023-02-26T17:56:47.545Z,12.98
2023-02-26T17:59:20.981Z,13.43
2023-02-26T18:01:53.725Z,12.25
2023-02-26T18:04:27.308Z,12.55
2023-02-26T18:07:00.331Z,12.35
2023-02-26T18:09:33.548Z,14.80
2023-02-26T18:12:07.514Z,13.72
2023-02-26T18:14:40.679Z,13.40
2023-02-26T18:17:22.133Z,12.90
2023-02-26T18:19:55.402Z,12.78
2023-02-26T18:22:28.269Z,13.53
2023-02-26T18:25:01.914Z,12.63
2023-02-26T18:27:35.797Z,12.95
2023-02-26T18:30:24.902Z,14.03
2023-02-26T18:32:58.021Z,12.55
2023-02-26T18:35:32.778Z,13.32
2023-02-26T18:38:05.744Z,12.45
2023-02-26T18:40:38.826Z,12.17
2023-02-26T18:43:12.917Z,12.30
2023-02-26T18:45:49.344Z,14.40
2023-02-26T18:48:22.978Z,14.00
2023-02-26T18:50:59.734Z,20.68
2023-02-26T18:53:34.281Z,20.55
2023-02-26T18:56:08.174Z,12.73
2023-02-26T18:58:41.807Z,13.95
2023-02-26T19:01:15.323Z,13.90
2023-02-26T19:03:48.261Z,13.25
2023-02-26T19:06:21.371Z,14.18
2023-02-26T19:11:27.729Z,13.70
2023-02-26T19:14:01.635Z,13.95
2023-02-26T19:16:37.126Z,15.68
2023-02-26T19:19:12.813Z,13.08
2023-02-26T19:21:46.119Z,12.43
2023-02-26T19:24:19.326Z,13.30
2023-02-26T19:26:52.284Z,12.30
2023-02-26T19:29:25.125Z,12.23
2023-02-26T19:31:58.413Z,12.35
2023-02-26T19:34:32.406Z,13.13
2023-02-26T19:39:38.497Z,14.10
2023-02-26T19:42:12.230Z,12.82
2023-02-26T19:44:45.267Z,12.50
2023-02-26T19:47:18.471Z,12.43
2023-02-26T19:49:51.364Z,12.70
2023-02-26T19:52:24.180Z,12.45
2023-02-26T19:54:56.920Z,11.38
2023-02-26T19:57:30.298Z,13.10
2023-02-26T20:00:03.595Z,12.13
2023-02-26T20:02:38.062Z,12.93
2023-02-26T20:05:13.305Z,12.40
2023-02-26T20:07:48.386Z,14.38
2023-02-26T20:10:23.486Z,11.83
2023-02-26T20:12:58.676Z,11.55
2023-02-26T20:15:31.752Z,11.45
2023-02-26T20:18:04.682Z,11.33
2023-02-26T20:20:37.651Z,11.25
2023-02-26T20:23:10.566Z,11.85
2023-02-26T20:25:45.524Z,11.85
2023-02-26T20:33:26.374Z,11.28
2023-02-26T20:35:59.090Z,12.20
2023-02-26T20:38:31.898Z,12.35
2023-02-26T20:41:05.938Z,11.85
2023-02-26T20:43:38.990Z,11.68
2023-02-26T20:46:13.338Z,10.85
2023-02-26T20:48:46.335Z,10.15
2023-02-26T20:51:19.239Z,11.10
2023-02-26T20:53:52.255Z,10.95
2023-02-26T20:56:25.745Z,10.80
2023-02-26T20:58:58.516Z,10.95
2023-02-26T21:01:32.922Z,12.58
2023-02-26T21:04:09.576Z,11.78
2023-02-26T21:06:42.584Z,11.18
2023-02-26T21:09:17.206Z,9.93
2023-02-26T21:11:51.681Z,10.78
2023-02-26T21:14:26.696Z,10.68
2023-02-26T21:16:59.782Z,10.65
2023-02-26T21:19:33.721Z,10.72
2023-02-26T21:22:07.549Z,10.68
2023-02-26T21:24:40.269Z,10.88
2023-02-26T21:27:13.228Z,10.75
2023-02-26T21:29:46.541Z,10.77
2023-02-26T21:32:19.611Z,11.22
2023-02-26T21:37:26.331Z,9.98
2023-02-26T21:39:59.578Z,10.45
2023-02-26T21:42:32.288Z,10.88
2023-02-26T21:45:05.600Z,12.85
2023-02-26T21:47:39.040Z,11.53
2023-02-26T21:50:13.097Z,10.88
2023-02-26T21:52:46.283Z,11.50
2023-02-26T21:55:19.285Z,11.22
2023-02-26T21:57:52.099Z,11.85
2023-02-26T22:00:25.180Z,10.35
2023-02-26T22:02:58.123Z,11.15
2023-02-26T22:05:30.808Z,12.30
2023-02-26T22:08:03.577Z,10.90
2023-02-26T22:10:36.595Z,10.55
2023-02-26T22:13:09.445Z,11.35
2023-02-26T22:15:43.516Z,10.97
2023-02-26T22:18:18.319Z,11.15
2023-02-26T22:20:51.211Z,11.05
2023-02-26T22:23:24.649Z,10.32
2023-02-26T22:25:57.526Z,10.98
2023-02-26T22:28:30.694Z,11.22
2023-02-26T22:31:03.723Z,10.90
2023-02-26T22:33:36.971Z,10.97
2023-02-26T22:36:10.897Z,11.60
2023-02-26T22:38:43.785Z,11.73
2023-02-26T22:41:18.128Z,12.05
2023-02-26T22:43:53.883Z,11.53
2023-02-26T22:46:28.731Z,11.78
2023-02-26T22:49:01.832Z,12.05
2023-02-26T22:51:35.207Z,11.80
2023-02-26T22:54:08.480Z,11.60
2023-02-26T22:56:41.134Z,10.53
2023-02-26T22:59:14.381Z,11.05
2023-02-26T23:01:47.294Z,11.40
2023-02-26T23:04:20.506Z,11.13
2023-02-26T23:06:53.408Z,13.03
2023-02-26T23:09:28.034Z,13.32
2023-02-26T23:12:00.927Z,12.95
2023-02-26T23:17:09.241Z,13.28
2023-02-26T23:19:42.064Z,11.20
2023-02-26T23:22:15.441Z,11.77
2023-02-26T23:24:49.076Z,12.83
2023-02-26T23:27:22.652Z,12.17
2023-02-26T23:29:56.124Z,11.93
2023-02-26T23:32:29.679Z,11.18
2023-02-26T23:35:03.318Z,12.88
2023-02-26T23:37:36.461Z,12.73
2023-02-26T23:40:11.755Z,12.75
2023-02-26T23:42:45.355Z,13.65
2023-02-26T23:45:18.188Z,13.48
2023-02-26T23:47:52.898Z,13.38
2023-02-26T23:50:26.136Z,13.13
2023-02-26T23:52:58.932Z,13.08
2023-02-26T23:55:31.804Z,11.95
2023-02-26T23:58:04.533Z,13.20
